Terminal Aerodrome Forecast
Issued by NWS

Home | Current Version | Previous Version | Text Only | Print | Product List | Glossary Off
Versions: 1 2 3 4 5 6 7 8 9 10 11 12 13 14 15 16 17 18

000
FTUS43 KICT 231100 AAC
TAFRSL
TAF AMD
KRSL 231117Z 2311/2406 18009KT 6SM -RA SCT035 OVC060
      TEMPO 2311/2314 VRB22G30KT 3SM TSRA BKN035CB
     FM231400 18017KT P6SM VCSH BKN050 OVC080
     FM231700 19017G25KT P6SM OVC060
     FM232300 17013KT P6SM BKN070=

USA.gov is the U.S. government's official web portal to all federal, state and local government web resources and services.